This is the latest recevied weather packets stored in our database for station/object W4SKW. If no packets are shown the sender has not sent any weather packets the latest 10 day(s).
| Time | Temp. | Humidity | Pressure | Rain* | Wind** | Luminosity | Snow |
|---|---|---|---|---|---|---|---|
| 1777573179 | 19.44° C | 56% | 1014.6 hPa | 0 mm | - | 431 W/m² | - |
| 1777572875 | 20° C | 55% | 1014.3 hPa | 0 mm | - | 420 W/m² | - |
| 1777572571 | 20° C | 57% | 1014.4 hPa | 0 mm | - | 427 W/m² | - |
| 1777572266 | 20° C | 54% | 1014.6 hPa | 0 mm | - | 465 W/m² | - |
| 1777571962 | 19.44° C | 61% | 1014.7 hPa | 0 mm | - | 457 W/m² | - |
| 1777571657 | 20° C | 56% | 1014.4 hPa | 0 mm | - | 522 W/m² | - |
| 1777571355 | 20° C | 63% | 1014.6 hPa | 0 mm | - | 540 W/m² | - |
| 1777571050 | 20° C | 59% | 1014.6 hPa | 0 mm | - | 611 W/m² | - |
| 1777570747 | 20° C | 55% | 1014.6 hPa | 0 mm | - | 671 W/m² | - |
| 1777570443 | 19.44° C | 55% | 1014.7 hPa | 0 mm | - | 631 W/m² | - |
| 1777570139 | 20.56° C | 55% | 1014.7 hPa | 0 mm | - | 635 W/m² | - |
| 1777569835 | 20° C | 59% | 1014.7 hPa | 0 mm | - | 599 W/m² | - |
| 1777569531 | 20.56° C | 57% | 1014.8 hPa | 0 mm | - | 616 W/m² | - |
| 1777569228 | 20° C | 63% | 1015 hPa | 0 mm | - | 534 W/m² | - |
| 1777568924 | 20° C | 60% | 1014.8 hPa | 0 mm | - | 590 W/m² | - |
| 1777568621 | 19.44° C | 59% | 1014.9 hPa | 0 mm | - | 645 W/m² | - |
| 1777568319 | 19.44° C | 59% | 1014.9 hPa | 0 mm | - | 645 W/m² | - |
| 1777568014 | 20° C | 62% | 1015.1 hPa | 0 mm | - | 567 W/m² | - |
| 1777567711 | 20° C | 63% | 1015.1 hPa | 0 mm | - | 522 W/m² | - |
| 1777567408 | 19.44° C | 63% | 1015 hPa | 0 mm | - | 678 W/m² | - |
| 1777567106 | 18.89° C | 62% | 1015 hPa | 0 mm | - | 636 W/m² | - |
| 1777566804 | 18.89° C | 66% | 1015.1 hPa | 0 mm | - | 414 W/m² | - |
| 1777566501 | 18.89° C | 64% | 1015.1 hPa | 0 mm | - | 493 W/m² | - |
| 1777566199 | 18.33° C | 63% | 1015.2 hPa | 0 mm | - | 414 W/m² | - |
| 1777565895 | 18.33° C | 63% | 1015.1 hPa | 0 mm | - | 529 W/m² | - |
* Rain latest hour (hover to see other rain measurements)
** Current wind speed in m/s (hover to see current wind gust speed)